createdAt,value
2022-10-21T00:01:00.485Z,11.32
2022-10-21T00:03:28.460Z,12.50
2022-10-21T00:05:56.163Z,12.85
2022-10-21T00:08:27.894Z,11.63
2022-10-21T00:10:57.538Z,10.65
2022-10-21T00:13:27.299Z,12.77
2022-10-21T00:16:02.090Z,12.60
2022-10-21T00:18:30.034Z,12.25
2022-10-21T00:21:05.701Z,12.07
2022-10-21T00:23:33.098Z,12.40
2022-10-21T00:26:00.862Z,12.77
2022-10-21T00:28:28.453Z,12.35
2022-10-21T00:30:58.110Z,11.43
2022-10-21T00:33:26.371Z,12.32
2022-10-21T00:36:05.746Z,11.93
2022-10-21T00:38:34.227Z,10.63
2022-10-21T00:41:03.001Z,11.25
2022-10-21T00:43:30.441Z,11.15
2022-10-21T00:46:03.223Z,11.10
2022-10-21T00:48:50.989Z,11.70
2022-10-21T00:51:23.053Z,11.15
2022-10-21T00:53:51.040Z,11.32
2022-10-21T00:56:21.333Z,10.63
2022-10-21T00:58:59.566Z,12.77
2022-10-21T01:01:26.998Z,12.35
2022-10-21T01:03:56.575Z,12.05
2022-10-21T01:06:24.951Z,11.65
2022-10-21T01:08:57.741Z,11.10
2022-10-21T01:11:29.585Z,12.45
2022-10-21T01:14:21.934Z,11.15
2022-10-21T01:17:00.270Z,11.38
2022-10-21T01:19:36.449Z,12.05
2022-10-21T01:22:29.223Z,12.63
2022-10-21T01:25:15.642Z,12.23
2022-10-21T01:27:45.341Z,12.00
2022-10-21T01:30:26.615Z,12.02
2022-10-21T01:32:56.174Z,12.40
2022-10-21T01:35:25.920Z,13.02
2022-10-21T01:38:02.613Z,13.02
2022-10-21T01:40:37.298Z,12.95
2022-10-21T01:43:19.365Z,13.35
2022-10-21T01:46:10.890Z,11.55
2022-10-21T01:48:41.070Z,12.25
2022-10-21T01:51:08.903Z,11.15
2022-10-21T01:53:42.928Z,10.40
2022-10-21T01:56:15.346Z,11.25
2022-10-21T01:58:52.058Z,11.10
2022-10-21T02:01:21.257Z,10.95
2022-10-21T02:03:55.751Z,11.07
2022-10-21T02:06:23.292Z,11.87
2022-10-21T02:09:12.813Z,12.40
2022-10-21T02:11:42.897Z,11.63
2022-10-21T02:14:19.980Z,13.02
2022-10-21T02:16:47.854Z,11.82
2022-10-21T02:19:23.728Z,12.02
2022-10-21T02:21:53.960Z,11.40
2022-10-21T02:24:44.789Z,10.98
2022-10-21T02:27:12.340Z,11.27
2022-10-21T02:29:41.637Z,11.63
2022-10-21T02:32:15.125Z,10.57
2022-10-21T02:35:01.472Z,9.63
2022-10-21T02:40:28.514Z,11.25
2022-10-21T02:43:03.714Z,10.93
2022-10-21T02:45:41.139Z,10.55
2022-10-21T02:48:08.490Z,12.38
2022-10-21T02:50:36.017Z,12.93
2022-10-21T02:53:03.446Z,11.32
2022-10-21T02:55:30.891Z,12.50
2022-10-21T02:57:58.283Z,11.98
2022-10-21T03:00:29.464Z,12.23
2022-10-21T03:02:58.255Z,12.60
2022-10-21T03:05:25.773Z,11.98
2022-10-21T03:07:53.171Z,11.68
2022-10-21T03:10:20.806Z,10.80
2022-10-21T03:12:49.998Z,11.65
2022-10-21T03:15:18.002Z,11.27
2022-10-21T03:17:45.379Z,11.23
2022-10-21T03:20:12.818Z,11.73
2022-10-21T03:22:40.185Z,10.07
2022-10-21T03:25:07.989Z,11.20
2022-10-21T03:27:35.338Z,10.07
2022-10-21T03:30:03.183Z,10.43
2022-10-21T03:32:30.503Z,10.48
2022-10-21T03:34:57.884Z,10.25
2022-10-21T03:37:25.344Z,10.73
2022-10-21T03:39:52.676Z,11.73
2022-10-21T03:42:20.077Z,12.45
2022-10-21T03:44:47.429Z,11.50
2022-10-21T03:47:14.915Z,10.38
2022-10-21T03:49:42.308Z,9.63
2022-10-21T03:52:09.669Z,10.60
2022-10-21T03:54:37.187Z,10.23
2022-10-21T03:57:04.619Z,10.05
2022-10-21T03:59:32.196Z,9.80
2022-10-21T04:01:59.805Z,10.55
2022-10-21T04:04:27.253Z,10.80
2022-10-21T04:06:54.908Z,10.27
2022-10-21T04:09:22.298Z,10.38
2022-10-21T04:11:49.789Z,10.40
2022-10-21T04:14:17.375Z,10.93
2022-10-21T04:16:46.139Z,11.35
2022-10-21T04:19:19.070Z,10.95
2022-10-21T04:21:47.200Z,11.38
2022-10-21T04:24:14.702Z,11.93
2022-10-21T04:26:45.042Z,12.05
2022-10-21T04:29:12.624Z,10.25
2022-10-21T04:31:40.036Z,11.07
2022-10-21T04:34:07.393Z,11.40
2022-10-21T04:36:35.507Z,10.18
2022-10-21T04:39:02.860Z,12.27
2022-10-21T04:41:30.924Z,11.40
2022-10-21T04:43:59.170Z,10.95
2022-10-21T04:46:27.504Z,10.93
2022-10-21T04:49:04.987Z,10.18
2022-10-21T04:51:42.776Z,10.50
2022-10-21T04:54:11.295Z,10.13
2022-10-21T04:56:38.650Z,10.23
2022-10-21T04:59:13.905Z,9.90
2022-10-21T05:01:42.095Z,9.80
2022-10-21T05:04:09.900Z,9.00
2022-10-21T05:06:37.496Z,9.07
2022-10-21T05:09:09.307Z,9.50
2022-10-21T05:11:37.662Z,8.75
2022-10-21T05:14:05.039Z,9.10
2022-10-21T05:16:34.824Z,8.63
2022-10-21T05:19:03.918Z,8.75
2022-10-21T05:21:34.003Z,8.95
2022-10-21T05:24:01.704Z,11.75
2022-10-21T05:26:31.170Z,10.05
2022-10-21T05:29:11.958Z,9.77
2022-10-21T05:31:46.685Z,11.27
2022-10-21T05:34:14.204Z,11.65
2022-10-21T05:36:41.784Z,11.43
2022-10-21T05:39:11.753Z,11.60
2022-10-21T05:41:41.073Z,9.52
2022-10-21T05:44:10.379Z,9.45
2022-10-21T05:46:37.780Z,9.48
2022-10-21T05:49:05.147Z,10.63
2022-10-21T05:51:32.689Z,11.45
2022-10-21T05:54:00.182Z,10.85
2022-10-21T05:56:27.940Z,10.95
2022-10-21T05:58:55.332Z,11.27
2022-10-21T06:01:22.811Z,12.50
2022-10-21T06:03:50.359Z,11.65
2022-10-21T06:06:17.776Z,12.68
2022-10-21T06:08:45.299Z,12.23
2022-10-21T06:11:16.964Z,10.57
2022-10-21T06:13:44.610Z,10.85
2022-10-21T06:16:12.470Z,11.25
2022-10-21T06:18:40.586Z,10.82
2022-10-21T06:21:08.342Z,10.73
2022-10-21T06:23:36.445Z,12.02
2022-10-21T06:26:05.403Z,10.85
2022-10-21T06:28:34.452Z,11.80
2022-10-21T06:31:02.167Z,11.20
2022-10-21T06:33:29.644Z,11.10
2022-10-21T06:35:57.358Z,11.70
2022-10-21T06:38:26.210Z,12.32
2022-10-21T06:40:54.144Z,13.15
2022-10-21T06:46:10.793Z,11.68
2022-10-21T06:48:38.378Z,11.65
2022-10-21T06:51:07.313Z,12.13
2022-10-21T06:53:38.978Z,11.80
2022-10-21T06:56:08.168Z,12.05
2022-10-21T06:58:36.424Z,11.85
2022-10-21T07:01:16.489Z,12.30
2022-10-21T07:03:56.005Z,13.30
2022-10-21T07:06:24.202Z,13.32
2022-10-21T07:08:58.837Z,13.55
2022-10-21T07:11:27.054Z,13.13
2022-10-21T07:13:54.455Z,11.98
2022-10-21T07:16:26.657Z,12.00
2022-10-21T07:19:01.245Z,12.02
2022-10-21T07:21:30.763Z,11.60
2022-10-21T07:23:59.546Z,13.35
2022-10-21T07:26:29.027Z,13.98
2022-10-21T07:29:15.861Z,13.70
2022-10-21T07:31:54.574Z,14.00
2022-10-21T07:34:21.964Z,13.13
2022-10-21T07:36:54.637Z,14.13
2022-10-21T07:39:24.965Z,15.18
2022-10-21T07:41:55.382Z,16.05
2022-10-21T07:44:27.412Z,15.18
2022-10-21T07:46:56.260Z,14.35
2022-10-21T07:49:24.456Z,12.18
2022-10-21T07:51:52.111Z,11.55
2022-10-21T07:54:19.886Z,11.27
2022-10-21T07:56:51.254Z,10.18
2022-10-21T07:59:24.298Z,9.32
2022-10-21T08:01:58.423Z,8.73
2022-10-21T08:04:29.936Z,9.25
2022-10-21T08:06:57.583Z,7.85
2022-10-21T08:09:36.541Z,8.50
2022-10-21T08:12:05.278Z,7.65
2022-10-21T08:14:32.666Z,8.15
2022-10-21T08:17:00.118Z,8.23
2022-10-21T08:19:29.900Z,7.63
2022-10-21T08:21:57.912Z,7.10
2022-10-21T08:24:27.290Z,8.05
2022-10-21T08:26:56.294Z,8.77
2022-10-21T08:29:23.626Z,9.05
2022-10-21T08:31:51.070Z,7.55
2022-10-21T08:34:18.692Z,7.80
2022-10-21T08:36:46.774Z,7.53
2022-10-21T08:39:14.290Z,7.65
2022-10-21T08:41:41.844Z,8.52
2022-10-21T08:44:11.994Z,8.07
2022-10-21T08:46:52.068Z,8.70
2022-10-21T08:49:29.984Z,7.85
2022-10-21T08:52:04.396Z,7.60
2022-10-21T08:54:52.185Z,7.03
2022-10-21T08:57:20.273Z,7.10
2022-10-21T08:59:51.042Z,8.15
2022-10-21T09:02:25.338Z,7.40
2022-10-21T09:04:56.635Z,7.65
2022-10-21T09:07:28.713Z,7.35
2022-10-21T09:10:08.435Z,7.53
2022-10-21T09:12:39.598Z,6.72
2022-10-21T09:15:14.553Z,7.00
2022-10-21T09:17:56.833Z,7.85
2022-10-21T09:20:24.217Z,8.05
2022-10-21T09:23:20.827Z,7.95
2022-10-21T09:25:57.905Z,6.95
2022-10-21T09:28:26.039Z,7.07
2022-10-21T09:30:53.683Z,8.50
2022-10-21T09:33:24.350Z,6.75
2022-10-21T09:36:00.412Z,7.80
2022-10-21T09:38:30.492Z,7.57
2022-10-21T09:41:03.507Z,7.70
2022-10-21T09:43:31.614Z,8.85
2022-10-21T09:45:59.248Z,8.32
2022-10-21T09:48:41.076Z,7.32
2022-10-21T09:51:31.187Z,8.45
2022-10-21T09:54:00.469Z,8.15
2022-10-21T09:56:41.720Z,7.15
2022-10-21T09:59:09.270Z,7.90
2022-10-21T10:01:37.744Z,6.93
2022-10-21T10:04:22.026Z,7.97
2022-10-21T10:06:49.983Z,7.43
2022-10-21T10:09:28.312Z,7.82
2022-10-21T10:11:57.947Z,6.40
2022-10-21T10:14:30.434Z,6.95
2022-10-21T10:16:58.928Z,7.25
2022-10-21T10:20:19.484Z,8.90
2022-10-21T10:24:05.139Z,7.78
2022-10-21T10:26:57.823Z,7.05
2022-10-21T10:39:17.692Z,7.35
2022-10-21T10:42:19.663Z,6.68
2022-10-21T10:48:51.308Z,8.10
2022-10-21T10:55:19.575Z,7.03
2022-10-21T10:58:20.263Z,7.22
2022-10-21T11:04:51.003Z,6.50
2022-10-21T11:07:27.410Z,7.38
2022-10-21T11:10:52.396Z,7.47
2022-10-21T11:15:29.417Z,7.05
2022-10-21T11:17:42.780Z,6.65
2022-10-21T11:20:40.084Z,7.10
2022-10-21T11:23:18.220Z,6.78
2022-10-21T11:30:49.170Z,7.30
2022-10-21T11:33:15.274Z,6.60
2022-10-21T11:36:17.823Z,5.60
2022-10-21T11:55:40.680Z,6.55
2022-10-21T12:17:14.177Z,6.10
2022-10-21T12:19:41.959Z,7.53
2022-10-21T12:22:11.842Z,8.38
2022-10-21T12:24:51.088Z,7.40
2022-10-21T12:27:19.509Z,6.32
2022-10-21T12:30:05.640Z,7.07
2022-10-21T12:32:51.905Z,6.22
2022-10-21T12:35:28.083Z,5.57
2022-10-21T12:37:55.404Z,5.70
2022-10-21T12:40:29.414Z,6.80
2022-10-21T12:43:01.479Z,7.05
2022-10-21T12:45:30.711Z,6.32
2022-10-21T12:47:58.443Z,6.72
2022-10-21T12:50:33.831Z,7.28
2022-10-21T12:53:04.299Z,7.88
2022-10-21T12:55:39.960Z,7.68
2022-10-21T12:58:17.104Z,7.68
2022-10-21T13:00:44.706Z,7.53
2022-10-21T13:03:20.018Z,7.90
2022-10-21T13:05:47.533Z,7.75
2022-10-21T13:08:24.281Z,7.85
2022-10-21T13:11:23.028Z,7.88
2022-10-21T13:14:10.431Z,11.00
2022-10-21T13:16:40.150Z,8.48
2022-10-21T13:19:13.584Z,8.10
2022-10-21T13:21:42.235Z,8.18
2022-10-21T13:24:15.258Z,14.23
2022-10-21T13:27:02.898Z,7.53
2022-10-21T13:29:39.049Z,8.45
2022-10-21T13:32:12.501Z,6.88
2022-10-21T13:34:42.710Z,7.13
2022-10-21T13:37:16.003Z,8.75
2022-10-21T13:39:44.027Z,7.38
2022-10-21T13:42:16.689Z,8.73
2022-10-21T13:44:51.165Z,9.70
2022-10-21T13:47:27.422Z,7.32
2022-10-21T13:49:56.603Z,6.65
2022-10-21T13:52:30.831Z,6.80
2022-10-21T13:55:01.923Z,6.83
2022-10-21T13:57:32.871Z,7.93
2022-10-21T14:00:01.176Z,9.02
2022-10-21T14:02:28.684Z,8.50
2022-10-21T14:05:03.076Z,7.90
2022-10-21T14:07:30.581Z,8.25
2022-10-21T14:09:59.163Z,9.23
2022-10-21T14:12:26.535Z,9.20
2022-10-21T14:14:55.114Z,7.72
2022-10-21T14:17:24.200Z,7.60
2022-10-21T14:20:06.243Z,9.82
2022-10-21T14:22:33.851Z,7.57
2022-10-21T14:25:02.651Z,8.55
2022-10-21T14:27:31.757Z,7.40
2022-10-21T14:30:06.558Z,7.32
2022-10-21T14:32:34.639Z,7.88
2022-10-21T14:35:04.922Z,8.35
2022-10-21T14:37:41.473Z,9.23
2022-10-21T14:40:29.842Z,7.65
2022-10-21T14:43:16.709Z,7.03
2022-10-21T14:45:49.102Z,7.20
2022-10-21T14:48:27.577Z,7.70
2022-10-21T14:50:56.354Z,9.05
2022-10-21T14:53:24.858Z,9.15
2022-10-21T14:55:56.904Z,8.15
2022-10-21T14:58:26.975Z,9.07
2022-10-21T15:00:55.508Z,8.70
2022-10-21T15:03:39.675Z,7.88
2022-10-21T15:06:18.914Z,7.80
2022-10-21T15:09:07.117Z,7.03
2022-10-21T15:11:36.553Z,6.75
2022-10-21T15:14:08.716Z,7.07
2022-10-21T15:16:36.235Z,6.15
2022-10-21T15:19:10.954Z,6.95
2022-10-21T15:21:44.199Z,8.80
2022-10-21T15:24:18.501Z,6.80
2022-10-21T15:27:01.430Z,6.07
2022-10-21T15:29:34.278Z,6.38
2022-10-21T15:32:02.409Z,6.32
2022-10-21T15:34:38.188Z,6.78
2022-10-21T15:37:09.281Z,5.85
2022-10-21T15:39:38.307Z,5.82
2022-10-21T15:42:08.582Z,5.90
2022-10-21T15:44:36.388Z,5.95
2022-10-21T15:47:08.387Z,5.50
2022-10-21T15:49:43.044Z,5.80
2022-10-21T15:52:10.964Z,6.18
2022-10-21T15:54:40.698Z,5.82
2022-10-21T15:57:17.427Z,5.40
2022-10-21T15:59:45.179Z,5.75
2022-10-21T16:02:17.729Z,5.32
2022-10-21T16:04:47.338Z,5.20
2022-10-21T16:07:33.675Z,5.95
2022-10-21T16:10:03.999Z,5.95
2022-10-21T16:12:31.429Z,5.10
2022-10-21T16:14:58.812Z,6.03
2022-10-21T16:17:29.075Z,5.38
2022-10-21T16:20:02.458Z,6.85
2022-10-21T16:22:35.035Z,6.40
2022-10-21T16:25:05.400Z,4.97
2022-10-21T16:27:43.680Z,4.60
2022-10-21T16:30:24.215Z,10.88
2022-10-21T16:32:51.692Z,5.65
2022-10-21T16:35:19.976Z,5.13
2022-10-21T16:37:47.575Z,4.90
2022-10-21T16:40:20.108Z,4.22
2022-10-21T16:42:48.148Z,4.70
2022-10-21T16:45:15.771Z,4.95
2022-10-21T16:47:48.552Z,4.28
2022-10-21T16:50:23.864Z,3.80
2022-10-21T16:52:51.417Z,5.75
2022-10-21T16:55:19.025Z,5.72
2022-10-21T16:57:46.645Z,5.05
2022-10-21T17:00:14.752Z,6.90
2022-10-21T17:02:42.952Z,5.82
2022-10-21T17:05:13.037Z,6.43
2022-10-21T17:07:40.856Z,5.55
2022-10-21T17:10:08.914Z,5.95
2022-10-21T17:12:36.410Z,5.07
2022-10-21T17:15:04.307Z,5.45
2022-10-21T17:17:32.097Z,5.90
2022-10-21T17:19:59.473Z,6.43
2022-10-21T17:22:26.918Z,8.05
2022-10-21T17:24:54.357Z,12.55
2022-10-21T17:27:21.897Z,10.25
2022-10-21T17:29:51.931Z,7.55
2022-10-21T17:32:19.478Z,5.68
2022-10-21T17:34:47.307Z,5.97
2022-10-21T17:37:14.770Z,5.43
2022-10-21T17:39:42.244Z,4.65
2022-10-21T17:42:10.590Z,5.25
2022-10-21T17:44:38.095Z,4.20
2022-10-21T17:47:05.459Z,5.10
2022-10-21T17:49:33.450Z,4.60
2022-10-21T17:52:01.676Z,5.22
2022-10-21T17:54:32.644Z,4.97
2022-10-21T17:57:03.028Z,4.55
2022-10-21T17:59:33.344Z,4.30
2022-10-21T18:02:02.198Z,4.43
2022-10-21T18:04:31.830Z,5.15
2022-10-21T18:06:59.171Z,5.60
2022-10-21T18:09:29.633Z,4.80
2022-10-21T18:12:04.354Z,6.53
2022-10-21T18:14:32.807Z,5.22
2022-10-21T18:17:00.825Z,5.50
2022-10-21T18:19:28.886Z,4.82
2022-10-21T18:21:58.974Z,6.03
2022-10-21T18:24:27.288Z,6.75
2022-10-21T18:27:03.221Z,5.43
2022-10-21T18:29:31.356Z,4.95
2022-10-21T18:31:59.256Z,6.00
2022-10-21T18:34:26.635Z,4.50
2022-10-21T18:36:57.229Z,5.13
2022-10-21T18:39:24.699Z,6.63
2022-10-21T18:41:54.772Z,7.38
2022-10-21T18:44:22.396Z,6.35
2022-10-21T18:46:55.304Z,6.93
2022-10-21T18:49:23.657Z,7.65
2022-10-21T18:51:51.008Z,9.35
2022-10-21T18:54:18.441Z,16.45
2022-10-21T18:56:46.060Z,13.10
2022-10-21T18:59:14.890Z,15.30
2022-10-21T19:01:42.503Z,12.70
2022-10-21T19:04:10.140Z,11.20
2022-10-21T19:06:45.521Z,9.13
2022-10-21T19:09:15.379Z,10.05
2022-10-21T19:11:44.000Z,10.98
2022-10-21T19:14:14.132Z,11.80
2022-10-21T19:16:42.946Z,10.80
2022-10-21T19:19:10.585Z,11.93
2022-10-21T19:21:38.193Z,11.73
2022-10-21T19:24:05.682Z,9.93
2022-10-21T19:26:34.346Z,10.52
2022-10-21T19:29:02.402Z,11.25
2022-10-21T19:31:33.449Z,13.25
2022-10-21T19:34:03.787Z,11.95
2022-10-21T19:36:31.276Z,10.65
2022-10-21T19:38:58.687Z,12.60
2022-10-21T19:41:26.175Z,13.18
2022-10-21T19:43:58.631Z,10.75
2022-10-21T19:46:27.076Z,10.70
2022-10-21T19:48:54.823Z,10.95
2022-10-21T19:51:26.124Z,9.35
2022-10-21T19:53:53.930Z,7.80
2022-10-21T19:56:25.483Z,8.75
2022-10-21T19:58:54.623Z,9.60
2022-10-21T20:01:23.531Z,12.70
2022-10-21T20:03:51.705Z,15.18
2022-10-21T20:06:21.445Z,12.25
2022-10-21T20:08:49.041Z,13.27
2022-10-21T20:11:17.680Z,10.32
2022-10-21T20:13:45.726Z,8.13
2022-10-21T20:16:15.642Z,6.60
2022-10-21T20:18:43.115Z,8.98
2022-10-21T20:21:10.589Z,7.82
2022-10-21T20:23:38.191Z,7.15
2022-10-21T20:26:05.907Z,5.82
2022-10-21T20:28:33.531Z,5.70
2022-10-21T20:31:02.633Z,8.00
2022-10-21T20:33:31.119Z,7.15
2022-10-21T20:35:58.846Z,6.85
2022-10-21T20:38:26.252Z,7.03
2022-10-21T20:40:54.727Z,7.38
2022-10-21T20:43:22.242Z,8.48
2022-10-21T20:45:49.662Z,8.40
2022-10-21T20:48:17.106Z,8.55
2022-10-21T20:50:44.602Z,8.77
2022-10-21T20:53:12.030Z,9.50
2022-10-21T20:55:39.604Z,9.63
2022-10-21T20:58:07.006Z,8.07
2022-10-21T21:00:37.242Z,8.68
2022-10-21T21:03:04.745Z,11.75
2022-10-21T21:05:35.250Z,10.25
2022-10-21T21:08:05.531Z,10.45
2022-10-21T21:10:33.143Z,10.43
2022-10-21T21:13:00.863Z,11.52
2022-10-21T21:15:28.193Z,12.13
2022-10-21T21:17:56.540Z,15.05
2022-10-21T21:20:23.972Z,12.43
2022-10-21T21:22:51.551Z,12.15
2022-10-21T21:25:18.982Z,13.15
2022-10-21T21:27:46.379Z,14.23
2022-10-21T21:30:13.916Z,15.02
2022-10-21T21:32:41.683Z,14.40
2022-10-21T21:35:09.618Z,14.77
2022-10-21T21:37:37.062Z,15.27
2022-10-21T21:40:05.055Z,15.95
2022-10-21T21:42:32.492Z,13.65
2022-10-21T21:45:00.084Z,14.18
2022-10-21T21:47:27.472Z,13.02
2022-10-21T21:49:54.888Z,13.10
2022-10-21T21:52:22.881Z,18.73
2022-10-21T21:54:54.658Z,18.50
2022-10-21T21:57:27.629Z,18.63
2022-10-21T21:59:55.380Z,19.77
2022-10-21T22:02:22.815Z,16.40
2022-10-21T22:04:50.177Z,16.17
2022-10-21T22:07:17.682Z,19.00
2022-10-21T22:09:45.086Z,17.33
2022-10-21T22:12:14.703Z,16.05
2022-10-21T22:14:42.531Z,14.68
2022-10-21T22:17:10.055Z,14.20
2022-10-21T22:19:37.583Z,13.90
2022-10-21T22:22:05.709Z,14.05
2022-10-21T22:27:02.201Z,12.88
2022-10-21T22:29:29.712Z,12.30
2022-10-21T22:31:57.035Z,12.60
2022-10-21T22:34:24.414Z,12.07
2022-10-21T22:36:51.789Z,12.00
2022-10-21T22:39:19.159Z,13.13
2022-10-21T22:41:46.566Z,12.95
2022-10-21T22:44:14.432Z,11.52
2022-10-21T22:46:41.726Z,13.52
2022-10-21T22:49:10.212Z,12.88
2022-10-21T22:51:37.715Z,11.43
2022-10-21T22:54:11.700Z,11.35
2022-10-21T22:56:46.902Z,11.30
2022-10-21T22:59:14.708Z,10.15
2022-10-21T23:01:42.147Z,10.93
2022-10-21T23:04:10.717Z,11.25
2022-10-21T23:06:38.154Z,10.68
2022-10-21T23:09:06.299Z,11.07
2022-10-21T23:11:34.932Z,10.63
2022-10-21T23:14:07.854Z,11.50
2022-10-21T23:16:36.518Z,11.13
2022-10-21T23:19:04.404Z,11.95
2022-10-21T23:21:31.956Z,12.95
2022-10-21T23:23:59.361Z,13.18
2022-10-21T23:26:26.944Z,12.77
2022-10-21T23:28:54.421Z,11.55
2022-10-21T23:31:22.036Z,11.95
2022-10-21T23:33:49.528Z,12.18
2022-10-21T23:36:16.953Z,10.85
2022-10-21T23:38:44.472Z,10.40
2022-10-21T23:41:29.530Z,10.23
2022-10-21T23:44:01.850Z,10.07
2022-10-21T23:46:31.468Z,10.57
2022-10-21T23:48:58.853Z,11.82
2022-10-21T23:51:26.262Z,9.82
2022-10-21T23:53:53.769Z,10.85
2022-10-21T23:56:21.181Z,9.93
2022-10-21T23:58:48.786Z,10.32
